Time;durP1;ratioP1;P1;durP2;ratioP2;P2;SDS_P1;SDS_P2;PMS_P1;PMS_P2;Temp;Humidity;BMP_temperature;BMP_pressure;BME280_temperature;BME280_humidity;BME280_pressure;Samples;Min_cycle;Max_cycle;Signal;HPM_P1;HPM_P2
2022/08/27 00:02:14;;;;;;;17.80;10.80;;;;;;;18.57;100.00;98459.50;4997586;28;20046;-69
2022/08/27 00:04:40;;;;;;;20.73;11.40;;;;;;;18.68;100.00;98461.22;5014177;28;20261;-69
2022/08/27 00:07:06;;;;;;;18.92;11.13;;;;;;;18.66;100.00;98451.63;5019950;28;20043;-69
2022/08/27 00:09:31;;;;;;;19.42;11.75;;;;;;;18.63;100.00;98458.44;5018404;28;20084;-69
2022/08/27 00:11:57;;;;;;;17.38;10.10;;;;;;;18.77;100.00;98447.88;5003719;28;20112;-69
2022/08/27 00:14:24;;;;;;;15.73;10.75;;;;;;;18.78;100.00;98449.50;5014357;28;20179;-69
2022/08/27 00:16:50;;;;;;;15.30;9.85;;;;;;;18.77;100.00;98456.09;5001883;28;20030;-70
2022/08/27 00:19:16;;;;;;;16.02;9.65;;;;;;;18.78;100.00;98460.47;5010601;28;20108;-70
2022/08/27 00:21:41;;;;;;;15.75;9.82;;;;;;;18.66;100.00;98468.06;5044551;22;20069;-69
2022/08/27 00:24:06;;;;;;;17.80;11.20;;;;;;;18.64;100.00;98464.75;5010539;28;20415;-68
2022/08/27 00:26:32;;;;;;;20.33;12.32;;;;;;;18.58;100.00;98461.97;5008008;28;20028;-68
2022/08/27 00:28:58;;;;;;;18.45;11.45;;;;;;;18.56;100.00;98453.19;5005180;28;20057;-69
2022/08/27 00:31:23;;;;;;;22.20;11.48;;;;;;;18.55;100.00;98446.06;5010238;28;20037;-68
2022/08/27 00:33:48;;;;;;;24.17;11.13;;;;;;;18.65;100.00;98456.25;5007750;28;20037;-69
2022/08/27 00:36:13;;;;;;;21.70;12.82;;;;;;;18.76;100.00;98466.25;5005580;28;20026;-68
2022/08/27 00:38:40;;;;;;;19.08;12.50;;;;;;;18.81;100.00;98465.41;5001417;28;20029;-68
2022/08/27 00:41:07;;;;;;;22.45;14.80;;;;;;;18.79;100.00;98445.69;5014366;28;20036;-69
2022/08/27 00:43:48;;;;;;;19.85;12.60;;;;;;;18.89;100.00;98464.09;5013417;28;20029;-68
2022/08/27 00:46:21;;;;;;;28.67;16.20;;;;;;;18.90;100.00;98461.09;5006941;28;20018;-68
2022/08/27 00:48:50;;;;;;;26.30;16.10;;;;;;;18.90;100.00;98466.59;5007965;28;20561;-69
2022/08/27 00:51:15;;;;;;;29.60;17.73;;;;;;;18.89;100.00;98461.34;5005408;28;20117;-68
2022/08/27 00:53:40;;;;;;;27.50;18.52;;;;;;;18.86;100.00;98459.97;5002276;28;20523;-69
2022/08/27 00:56:10;;;;;;;33.35;19.60;;;;;;;18.91;100.00;98457.25;5011842;28;20557;-69
2022/08/27 00:58:39;;;;;;;34.15;20.50;;;;;;;18.81;100.00;98448.97;5003859;28;20022;-69
2022/08/27 01:01:10;;;;;;;38.38;20.70;;;;;;;18.76;100.00;98455.28;5006997;28;20022;-69
2022/08/27 01:03:36;;;;;;;26.83;18.90;;;;;;;18.63;100.00;98425.56;5008546;28;20030;-69
2022/08/27 01:06:04;;;;;;;36.55;20.75;;;;;;;18.70;100.00;98458.22;4990105;28;20030;-69
2022/08/27 01:08:35;;;;;;;30.52;19.27;;;;;;;18.76;100.00;98455.28;5005146;28;20479;-69
2022/08/27 01:11:01;;;;;;;34.60;20.95;;;;;;;18.73;100.00;98449.44;5004180;28;20033;-69
2022/08/27 01:13:30;;;;;;;34.13;19.08;;;;;;;18.74;100.00;98445.63;5008797;28;20530;-69
2022/08/27 01:15:57;;;;;;;35.20;20.83;;;;;;;18.74;100.00;98442.91;5008095;28;20026;-69
2022/08/27 01:18:28;;;;;;;27.83;18.67;;;;;;;18.64;100.00;98431.88;5007258;28;20076;-69
2022/08/27 01:21:05;;;;;;;32.15;20.27;;;;;;;18.74;100.00;98442.91;5012679;28;20037;-68
2022/08/27 01:23:41;;;;;;;36.53;22.73;;;;;;;18.73;100.00;98446.72;5000075;28;20026;-69
2022/08/27 01:26:08;;;;;;;35.75;21.77;;;;;;;18.62;100.00;98430.19;5010113;28;20048;-68
2022/08/27 01:28:35;;;;;;;39.88;22.65;;;;;;;18.69;100.00;98451.09;5006812;28;20055;-69
2022/08/27 01:31:03;;;;;;;33.00;20.52;;;;;;;18.73;100.00;98447.56;5003224;28;20763;-69
2022/08/27 01:33:28;;;;;;;32.22;20.63;;;;;;;18.72;100.00;98443.16;4990811;28;20131;-69
2022/08/27 01:35:53;;;;;;;36.97;20.83;;;;;;;18.74;100.00;98453.84;4992580;28;20049;-69
2022/08/27 01:38:20;;;;;;;37.72;22.83;;;;;;;18.69;100.00;98440.13;5001506;28;20041;-69
2022/08/27 01:40:46;;;;;;;38.50;23.50;;;;;;;18.73;100.00;98449.44;5009019;28;20033;-69
2022/08/27 01:43:12;;;;;;;38.45;24.80;;;;;;;18.72;100.00;98453.28;4991008;28;20436;-69
2022/08/27 01:45:43;;;;;;;36.78;22.60;;;;;;;18.73;100.00;98443.97;5007558;28;20058;-69
2022/08/27 01:48:09;;;;;;;38.25;22.77;;;;;;;18.72;100.00;98447.81;5001084;28;20122;-69
2022/08/27 01:50:36;;;;;;;36.53;21.50;;;;;;;18.78;100.00;98457.72;4986141;28;20117;-68
2022/08/27 01:53:06;;;;;;;40.58;23.25;;;;;;;18.80;100.00;98450.06;5003511;28;20057;-68
2022/08/27 01:55:32;;;;;;;36.90;22.15;;;;;;;18.60;100.00;98429.66;4997210;28;20057;-68
2022/08/27 01:57:57;;;;;;;36.28;22.17;;;;;;;18.64;100.00;98442.84;5007690;28;20064;-69
2022/08/27 02:00:29;;;;;;;38.47;23.17;;;;;;;18.77;100.00;98458.84;5007218;28;20058;-68
2022/08/27 02:02:56;;;;;;;39.67;22.42;;;;;;;18.79;100.00;98456.66;5000393;28;20503;-68
2022/08/27 02:05:22;;;;;;;40.38;25.13;;;;;;;18.83;100.00;98453.09;5006832;28;20440;-69
2022/08/27 02:07:48;;;;;;;45.45;26.45;;;;;;;18.64;100.00;98443.66;5007799;28;20117;-69
2022/08/27 02:10:17;;;;;;;40.15;24.65;;;;;;;18.71;100.00;98452.47;5008708;28;20018;-69
2022/08/27 02:12:43;;;;;;;46.85;26.70;;;;;;;18.60;100.00;98432.41;5004106;28;20041;-69
2022/08/27 02:15:09;;;;;;;39.20;26.23;;;;;;;18.58;100.00;98431.03;5001100;28;22714;-69
2022/08/27 02:17:34;;;;;;;45.78;27.70;;;;;;;18.57;100.00;98446.59;4989553;28;20058;-69
2022/08/27 02:19:59;;;;;;;42.45;27.60;;;;;;;18.54;100.00;98438.09;5001568;28;20472;-68
2022/08/27 02:22:25;;;;;;;42.80;26.30;;;;;;;18.55;100.00;98439.78;5000461;28;20487;-69
2022/08/27 02:24:50;;;;;;;43.58;25.67;;;;;;;18.65;100.00;98433.50;5007670;28;20120;-69
2022/08/27 02:27:17;;;;;;;43.15;27.70;;;;;;;18.60;100.00;98437.03;5004078;28;20132;-69
2022/08/27 02:29:42;;;;;;;46.10;27.77;;;;;;;18.58;100.00;98436.50;5001700;28;20026;-69
2022/08/27 02:32:07;;;;;;;48.53;30.08;;;;;;;18.62;100.00;98434.88;5003192;28;20041;-69
2022/08/27 02:34:33;;;;;;;45.92;28.02;;;;;;;18.58;100.00;98444.72;5009864;28;20021;-69
2022/08/27 02:36:58;;;;;;;44.60;27.58;;;;;;;18.55;100.00;98439.78;5009181;28;20391;-69
2022/08/27 02:39:24;;;;;;;43.35;27.98;;;;;;;18.56;100.00;98431.28;5008453;28;20029;-69
2022/08/27 02:41:49;;;;;;;45.42;27.63;;;;;;;18.54;100.00;98438.09;5008639;28;20034;-69
2022/08/27 02:44:15;;;;;;;46.55;27.60;;;;;;;18.56;100.00;98435.94;5002100;28;20112;-69
2022/08/27 02:46:40;;;;;;;45.78;28.52;;;;;;;18.39;100.00;98419.66;4999440;28;20068;-69
2022/08/27 02:49:08;;;;;;;46.55;28.33;;;;;;;18.59;100.00;98435.41;5010398;28;20472;-69
2022/08/27 02:51:33;;;;;;;45.25;28.35;;;;;;;18.60;100.00;98440.63;5013196;28;20060;-68
2022/08/27 02:53:59;;;;;;;48.78;29.98;;;;;;;18.58;100.00;98439.25;5006044;28;20042;-68
2022/08/27 02:56:25;;;;;;;47.13;29.35;;;;;;;18.60;100.00;98448.00;5003047;28;20049;-68
2022/08/27 02:58:50;;;;;;;53.28;29.40;;;;;;;18.62;100.00;98434.88;5002838;28;20073;-69
2022/08/27 03:01:15;;;;;;;45.30;26.13;;;;;;;18.68;100.00;98446.69;5010235;28;20040;-69
2022/08/27 03:03:41;;;;;;;49.42;29.25;;;;;;;18.62;100.00;98441.16;5007102;28;20141;-69
2022/08/27 03:06:06;;;;;;;47.85;29.52;;;;;;;18.66;100.00;98446.97;5011863;28;20029;-69
2022/08/27 03:08:31;;;;;;;43.53;27.98;;;;;;;18.62;100.00;98438.44;5014014;28;20025;-69
2022/08/27 03:10:57;;;;;;;47.10;27.98;;;;;;;18.72;100.00;98450.56;5009379;28;20026;-69
2022/08/27 03:13:24;;;;;;;45.08;28.73;;;;;;;18.73;100.00;98452.19;5000027;28;20036;-68
2022/08/27 03:15:50;;;;;;;43.63;28.30;;;;;;;18.79;100.00;98451.19;5005476;28;20018;-68
2022/08/27 03:18:20;;;;;;;44.85;28.52;;;;;;;18.74;100.00;98454.69;5014281;28;20025;-69
2022/08/27 03:20:48;;;;;;;;;;;;;;;18.77;100.00;98454.19;5001989;28;20571;-69
2022/08/27 03:23:14;;;;;;;44.13;28.00;;;;;;;18.74;100.00;98451.13;5008014;28;19944;-69
2022/08/27 03:25:44;;;;;;;44.60;28.02;;;;;;;18.66;100.00;98449.69;5005338;28;20472;-69
2022/08/27 03:28:10;;;;;;;48.38;29.80;;;;;;;18.61;100.00;98447.75;5005167;28;20085;-69
2022/08/27 03:30:35;;;;;;;46.03;29.48;;;;;;;18.49;100.00;98427.94;5011799;28;20028;-69
2022/08/27 03:33:01;;;;;;;51.35;29.05;;;;;;;18.66;100.00;98441.47;5011190;28;20041;-69
2022/08/27 03:35:26;;;;;;;49.72;30.05;;;;;;;18.62;100.00;98449.38;5001486;28;20484;-69
2022/08/27 03:37:51;;;;;;;50.03;29.75;;;;;;;18.52;100.00;98435.66;5009512;28;20045;-69
2022/08/27 03:40:18;;;;;;;46.47;29.20;;;;;;;18.51;100.00;98430.41;5004083;28;20057;-69
2022/08/27 03:42:43;;;;;;;44.63;27.52;;;;;;;18.66;100.00;98455.19;5003576;28;20029;-69
2022/08/27 03:45:10;;;;;;;46.30;27.95;;;;;;;18.41;100.00;98422.94;5003417;28;20029;-69
2022/08/27 03:47:36;;;;;;;46.65;28.70;;;;;;;18.65;100.00;98447.22;5004840;28;20388;-69
2022/08/27 03:50:03;;;;;;;46.50;29.08;;;;;;;18.63;100.00;98442.00;5002704;28;20110;-68
2022/08/27 03:52:28;;;;;;;44.83;28.60;;;;;;;18.59;100.00;98441.69;5006063;28;20038;-69
2022/08/27 03:54:54;;;;;;;49.25;28.23;;;;;;;18.58;100.00;98451.03;5004388;28;20075;-69
2022/08/27 03:57:19;;;;;;;41.28;27.13;;;;;;;18.38;100.00;98409.78;5009806;28;20022;-69
2022/08/27 03:59:44;;;;;;;42.65;25.92;;;;;;;18.43;100.00;98422.69;5010772;28;20373;-69
2022/08/27 04:02:11;;;;;;;41.75;27.30;;;;;;;18.47;100.00;98424.66;5005102;28;20030;-69
2022/08/27 04:04:36;;;;;;;42.97;28.10;;;;;;;18.58;100.00;98437.31;5011908;28;20101;-69
2022/08/27 04:07:02;;;;;;;38.15;26.17;;;;;;;18.43;100.00;98426.25;5003418;28;20460;-69
2022/08/27 04:09:27;;;;;;;48.55;27.80;;;;;;;18.34;100.00;98427.84;5009418;28;20501;-69
2022/08/27 04:11:53;;;;;;;44.30;26.77;;;;;;;18.37;100.00;98428.16;5005123;28;20022;-69
2022/08/27 04:14:19;;;;;;;43.97;25.52;;;;;;;18.44;100.00;98443.50;5005834;28;20101;-69
2022/08/27 04:16:44;;;;;;;45.22;25.58;;;;;;;18.40;100.00;98449.53;5001323;28;20026;-69
2022/08/27 04:19:11;;;;;;;43.75;25.80;;;;;;;18.44;100.00;98443.50;4996151;28;20043;-69
2022/08/27 04:21:37;;;;;;;43.75;25.48;;;;;;;18.45;100.00;98447.91;5006701;28;20185;-69
2022/08/27 04:24:03;;;;;;;50.20;26.15;;;;;;;18.40;100.00;98443.22;5016368;28;20099;-69
2022/08/27 04:26:28;;;;;;;44.40;26.70;;;;;;;18.38;100.00;98434.44;5007226;28;20494;-69
2022/08/27 04:28:56;;;;;;;37.33;24.48;;;;;;;18.45;100.00;98451.47;5012791;28;20044;-69
2022/08/27 04:31:21;;;;;;;37.30;24.50;;;;;;;18.26;100.00;98425.56;4999713;28;20044;-70
2022/08/27 04:33:47;;;;;;;41.17;26.23;;;;;;;18.42;100.00;98441.06;5006639;28;20511;-70
2022/08/27 04:36:13;;;;;;;41.63;26.05;;;;;;;18.45;100.00;98446.00;5007497;28;20022;-70
2022/08/27 04:38:39;;;;;;;43.55;25.65;;;;;;;18.47;100.00;98438.34;5005067;28;20025;-71
2022/08/27 04:41:18;;;;;;;45.58;25.83;;;;;;;18.27;100.00;98416.28;5002110;28;20033;-70
2022/08/27 04:43:44;;;;;;;;;;;;;;;18.49;100.00;98444.38;5007108;28;20109;-71
2022/08/27 04:46:09;;;;;;;42.50;25.23;;;;;;;18.54;100.00;98451.81;5008230;28;20032;-71
2022/08/27 04:48:35;;;;;;;38.97;24.15;;;;;;;18.60;100.00;98457.06;5008207;28;20028;-71
2022/08/27 04:51:00;;;;;;;43.65;25.90;;;;;;;18.54;100.00;98458.09;5011817;28;20104;-71
2022/08/27 04:53:26;;;;;;;41.30;25.42;;;;;;;18.55;100.00;98461.69;4983877;28;20479;-71
2022/08/27 04:55:55;;;;;;;37.50;24.88;;;;;;;18.53;100.00;98459.19;5004261;28;20022;-70
2022/08/27 04:58:22;;;;;;;41.38;25.63;;;;;;;18.57;100.00;98457.56;4991704;28;20563;-69
2022/08/27 05:00:51;;;;;;;38.35;25.05;;;;;;;18.58;100.00;98458.41;5008965;28;20034;-70
2022/08/27 05:03:18;;;;;;;40.58;24.67;;;;;;;18.50;100.00;98431.53;5009747;28;20112;-71
2022/08/27 05:05:45;;;;;;;47.38;24.52;;;;;;;18.71;100.00;98452.47;5009729;28;20029;-69
2022/08/27 05:08:11;;;;;;;38.08;24.38;;;;;;;18.73;100.00;98458.53;4997100;28;20026;-70
2022/08/27 05:10:42;;;;;;;39.88;24.13;;;;;;;18.76;100.00;98463.50;5007195;28;20105;-67
2022/08/27 05:13:07;;;;;;;41.17;26.52;;;;;;;18.69;100.00;98454.66;5004370;28;20073;-67
2022/08/27 05:15:33;;;;;;;38.00;25.85;;;;;;;18.76;100.00;98457.19;5006747;28;20033;-71
2022/08/27 05:17:59;;;;;;;37.85;25.13;;;;;;;18.81;100.00;98459.94;5005691;28;20034;-71
2022/08/27 05:20:26;;;;;;;34.72;23.60;;;;;;;18.86;100.00;98456.41;4997936;28;20487;-72
2022/08/27 05:22:51;;;;;;;36.83;24.77;;;;;;;18.81;100.00;98440.75;5005335;28;20407;-71
2022/08/27 05:25:17;;;;;;;36.42;24.25;;;;;;;18.98;100.00;98455.09;5006227;28;20104;-71
2022/08/27 05:27:42;;;;;;;38.80;24.52;;;;;;;19.10;100.00;98448.56;5006485;28;20369;-67
2022/08/27 05:30:08;;;;;;;38.13;25.27;;;;;;;19.10;100.00;98445.81;5003056;28;20025;-67
2022/08/27 05:32:33;;;;;;;43.63;24.52;;;;;;;19.18;100.00;98443.41;4999480;28;20140;-67
2022/08/27 05:34:58;;;;;;;35.63;23.60;;;;;;;19.10;100.00;98424.75;5003464;28;20022;-70
2022/08/27 05:37:24;;;;;;;36.10;24.45;;;;;;;19.17;100.00;98447.22;5004568;28;20049;-71
2022/08/27 05:39:49;;;;;;;36.88;25.25;;;;;;;19.19;100.00;98441.50;5008455;28;20386;-69
2022/08/27 05:42:14;;;;;;;38.17;23.63;;;;;;;19.25;100.00;98443.16;5007169;28;20030;-69
2022/08/27 05:44:39;;;;;;;36.55;23.58;;;;;;;19.27;100.00;98446.47;4985969;28;20029;-67
2022/08/27 05:47:05;;;;;;;37.85;22.85;;;;;;;19.28;100.00;98448.09;5003633;28;20033;-68
2022/08/27 05:49:30;;;;;;;33.03;24.23;;;;;;;19.30;100.00;98451.41;5001504;28;20134;-67
2022/08/27 05:51:55;;;;;;;39.85;25.10;;;;;;;19.33;100.00;98442.63;4982697;28;20045;-68
2022/08/27 05:54:21;;;;;;;33.03;24.25;;;;;;;19.25;100.00;98438.47;5000337;28;20030;-69
2022/08/27 05:56:48;;;;;;;33.92;23.52;;;;;;;19.39;100.00;98449.81;5001399;28;20034;-71
2022/08/27 06:01:57;;;;;;;38.45;23.90;;;;;;;19.32;100.00;98448.41;5006465;28;20083;-66
2022/08/27 06:04:24;;;;;;;35.97;22.90;;;;;;;19.24;100.00;98425.88;5002250;28;20622;-66
2022/08/27 06:06:50;;;;;;;35.30;24.25;;;;;;;18.99;100.00;98395.63;5005470;28;20026;-66
2022/08/27 06:09:19;;;;;;;40.50;23.48;;;;;;;19.33;100.00;98441.81;5004878;28;20121;-67
2022/08/27 06:11:45;;;;;;;33.63;23.73;;;;;;;19.38;100.00;98450.06;5003941;28;20527;-66
2022/08/27 06:14:11;;;;;;;36.40;22.90;;;;;;;19.47;100.00;98449.28;5004449;28;20168;-67
2022/08/27 06:16:38;;;;;;;35.10;22.58;;;;;;;19.50;100.00;98450.66;5003660;28;20037;-67
2022/08/27 06:19:04;;;;;;;39.38;22.92;;;;;;;19.49;100.00;98441.59;5008158;28;20491;-66
2022/08/27 06:23:58;;;;;;;38.70;24.20;;;;;;;19.58;100.00;98460.28;5069248;23;20045;-70
2022/08/27 06:26:24;;;;;;;32.60;22.17;;;;;;;19.56;100.00;98470.69;5048703;28;20083;-71
2022/08/27 06:28:50;;;;;;;37.45;22.80;;;;;;;19.56;100.00;98459.72;5047554;28;20147;-70
2022/08/27 06:31:18;;;;;;;34.22;23.48;;;;;;;19.57;100.00;98464.09;5048895;28;20104;-71
2022/08/27 06:33:45;;;;;;;32.45;20.95;;;;;;;19.61;100.00;98462.47;5054780;28;20032;-70
2022/08/27 06:36:14;;;;;;;32.15;21.10;;;;;;;19.54;100.00;98453.66;5062808;28;20108;-73
2022/08/27 06:38:41;;;;;;;34.58;23.08;;;;;;;19.50;100.00;98461.63;5063251;28;20107;-73
2022/08/27 06:41:09;;;;;;;33.30;21.90;;;;;;;19.51;100.00;98467.94;5075297;28;20024;-70
2022/08/27 06:43:37;;;;;;;32.67;21.65;;;;;;;19.55;100.00;98472.63;5077226;28;20474;-70
2022/08/27 06:46:04;;;;;;;30.05;20.70;;;;;;;19.61;100.00;98481.69;5069193;28;20043;-70
2022/08/27 06:48:30;;;;;;;33.05;20.50;;;;;;;19.58;100.00;98477.56;5065388;28;20071;-69
2022/08/27 06:50:55;;;;;;;34.50;20.20;;;;;;;19.48;100.00;98464.63;5059667;28;20044;-73
2022/08/27 06:53:21;;;;;;;32.13;21.05;;;;;;;19.57;100.00;98478.66;5068790;28;20032;-73
2022/08/27 06:55:47;;;;;;;34.03;21.58;;;;;;;19.52;100.00;98453.09;5065472;28;20036;-73
2022/08/27 06:58:14;;;;;;;34.90;21.90;;;;;;;19.59;100.00;98472.91;5077282;28;20047;-74
2022/08/27 07:00:41;;;;;;;34.22;21.95;;;;;;;19.57;100.00;98472.31;5078545;28;20024;-73
2022/08/27 07:03:06;;;;;;;31.15;20.58;;;;;;;19.65;100.00;98475.41;5084387;28;20040;-72
2022/08/27 07:05:34;;;;;;;31.98;20.92;;;;;;;19.72;100.00;98477.06;5069877;28;20032;-73
2022/08/27 07:08:00;;;;;;;33.22;22.35;;;;;;;19.75;100.00;98480.09;5057281;28;20470;-71
2022/08/27 07:10:26;;;;;;;37.78;22.75;;;;;;;19.72;100.00;98475.16;5071072;28;20040;-70
2022/08/27 07:12:51;;;;;;;36.13;22.60;;;;;;;19.71;100.00;98484.50;5080795;28;20019;-70
2022/08/27 07:15:17;;;;;;;32.78;20.15;;;;;;;19.69;100.00;98468.28;5072211;28;20028;-73
2022/08/27 07:17:43;;;;;;;42.05;21.85;;;;;;;19.70;100.00;98460.88;5068233;28;20025;-72
2022/08/27 07:20:11;;;;;;;34.88;21.15;;;;;;;19.78;100.00;98482.31;5066704;28;20047;-72
2022/08/27 07:22:41;;;;;;;32.85;22.02;;;;;;;19.69;100.00;98484.75;5064131;28;20025;-72
2022/08/27 07:25:09;;;;;;;32.70;20.63;;;;;;;19.76;100.00;98480.94;5064527;28;20028;-72
2022/08/27 07:27:35;;;;;;;34.75;21.73;;;;;;;19.68;100.00;98474.06;5070471;28;20024;-72
2022/08/27 07:30:01;;;;;;;30.73;21.23;;;;;;;19.70;100.00;98482.81;5065474;28;20016;-71
2022/08/27 07:32:26;;;;;;;32.55;19.95;;;;;;;19.63;100.00;98471.28;5066628;28;20020;-72
2022/08/27 07:34:52;;;;;;;27.90;18.75;;;;;;;19.77;100.00;98488.88;5071048;28;20074;-72
2022/08/27 07:37:17;;;;;;;32.92;21.02;;;;;;;19.76;100.00;98495.50;5067601;28;20024;-73
2022/08/27 07:39:42;;;;;;;31.25;21.30;;;;;;;19.65;100.00;98486.38;5058975;28;20028;-73
2022/08/27 07:44:51;;;;;;;29.23;21.05;;;;;;;19.82;100.00;98499.88;5062110;28;20043;-73
2022/08/27 07:47:17;;;;;;;34.70;21.88;;;;;;;19.83;100.00;98509.78;5071842;28;20036;-74
2022/08/27 07:49:42;;;;;;;32.03;20.60;;;;;;;19.84;100.00;98507.84;5072382;28;20060;-74
2022/08/27 07:52:08;;;;;;;39.50;21.23;;;;;;;19.81;100.00;98503.72;5052306;28;20436;-73
2022/08/27 07:54:33;;;;;;;32.20;20.52;;;;;;;19.78;100.00;98511.66;5061774;28;20052;-71
2022/08/27 07:56:59;;;;;;;28.98;18.13;;;;;;;19.63;100.00;98499.53;5072311;28;20028;-72
2022/08/27 07:59:25;;;;;;;26.67;18.48;;;;;;;19.74;100.00;98510.56;5066398;28;20462;-72
2022/08/27 08:01:51;;;;;;;26.10;18.58;;;;;;;19.73;100.00;98496.03;5067026;28;20020;-72
2022/08/27 08:04:16;;;;;;;29.13;17.75;;;;;;;19.98;100.00;98508.16;5070108;28;20021;-75
2022/08/27 08:06:42;;;;;;;29.42;16.85;;;;;;;20.03;100.00;98503.50;5083523;28;20107;-73
2022/08/27 08:09:07;;;;;;;24.98;16.50;;;;;;;19.91;100.00;98489.19;5076134;28;20020;-71
2022/08/27 08:11:33;;;;;;;26.92;18.90;;;;;;;20.06;100.00;98515.84;5053673;28;20111;-70
2022/08/27 08:13:58;;;;;;;33.42;17.45;;;;;;;20.24;100.00;98504.34;5066998;28;20096;-70
2022/08/27 08:16:24;;;;;;;21.40;16.08;;;;;;;20.32;100.00;98517.53;5054111;28;20024;-73
2022/08/27 08:18:50;;;;;;;23.13;16.55;;;;;;;20.33;100.00;98501.84;5066949;28;20032;-76
2022/08/27 08:21:15;;;;;;;22.70;16.80;;;;;;;20.42;100.00;98513.16;5060157;28;20028;-76
2022/08/27 08:23:41;;;;;;;18.13;14.00;;;;;;;20.38;100.00;98493.63;5051006;28;20024;-76
2022/08/27 08:26:07;;;;;;;24.80;15.73;;;;;;;20.58;100.00;98525.81;5070952;28;20027;-73
2022/08/27 08:28:33;;;;;;;17.95;13.48;;;;;;;20.72;100.00;98521.41;5047949;28;20024;-73
2022/08/27 08:30:59;;;;;;;18.42;14.20;;;;;;;20.70;100.00;98520.03;5056608;28;20103;-69
2022/08/27 08:33:26;;;;;;;17.77;14.02;;;;;;;20.66;100.00;98517.00;5063499;28;20025;-68
2022/08/27 08:35:51;;;;;;;16.58;13.73;;;;;;;20.81;100.00;98534.59;5070974;28;20020;-73
2022/08/27 08:38:18;;;;;;;21.70;14.88;;;;;;;20.81;100.00;98535.41;5076886;28;20096;-73
2022/08/27 08:40:52;;;;;;;19.30;14.23;;;;;;;20.71;100.00;98519.75;5059751;28;20107;-73
2022/08/27 08:43:31;;;;;;;21.38;14.75;;;;;;;20.54;100.00;98510.94;5064183;28;20055;-75
2022/08/27 08:46:06;;;;;;;19.73;14.95;;;;;;;20.63;100.00;98536.81;5067721;28;21278;-75
2022/08/27 08:48:33;;;;;;;22.63;16.20;;;;;;;20.45;100.00;98543.63;5067291;28;20066;-75
2022/08/27 08:51:28;;;;;;;19.52;16.17;;;;;;;20.42;100.00;98533.19;5065336;28;20025;-75
2022/08/27 08:53:59;;;;;;;24.30;17.52;;;;;;;20.37;100.00;98546.94;5064357;28;20048;-76
2022/08/27 08:56:36;;;;;;;23.65;17.77;;;;;;;20.31;100.00;98532.38;5064936;28;20021;-77
2022/08/27 08:59:13;;;;;;;24.02;17.15;;;;;;;20.33;100.00;98527.44;5050926;28;20020;-77
2022/08/27 09:01:38;;;;;;;24.88;16.10;;;;;;;20.56;100.00;98526.06;5067723;28;20017;-78
2022/08/27 09:04:07;;;;;;;19.95;15.27;;;;;;;20.82;100.00;98552.72;5073297;28;20031;-73
2022/08/27 09:06:41;;;;;;;27.40;17.30;;;;;;;20.89;100.00;98536.78;5073389;28;20936;-77
2022/08/27 09:09:35;;;;;;;19.58;15.52;;;;;;;21.09;100.00;98536.75;5070058;28;20477;-77
2022/08/27 09:12:24;;;;;;;19.95;14.77;;;;;;;21.22;100.00;98549.91;5065054;28;20031;-73
2022/08/27 09:14:56;;;;;;;19.95;14.85;;;;;;;21.31;100.00;98541.09;5068466;28;20630;-75
2022/08/27 09:17:22;;;;;;;21.63;15.57;;;;;;;21.58;100.00;98544.31;5056850;28;20036;-75
2022/08/27 09:19:47;;;;;;;23.50;15.02;;;;;;;21.57;100.00;98544.59;5065094;28;20040;-70
2022/08/27 09:22:43;;;;;;;26.23;15.07;;;;;;;21.53;100.00;98557.28;5068047;28;20029;-78
2022/08/27 09:25:30;;;;;;;22.85;16.10;;;;;;;21.46;100.00;98552.09;5053301;28;20119;-69
2022/08/27 09:27:59;;;;;;;28.25;16.02;;;;;;;21.56;100.00;98554.81;5067353;28;20412;-69
2022/08/27 09:30:30;;;;;;;23.67;16.15;;;;;;;21.37;100.00;98553.72;5059151;28;20020;-69
2022/08/27 09:33:03;;;;;;;19.13;15.27;;;;;;;21.40;100.00;98543.00;5045528;28;20036;-69
2022/08/27 09:35:38;;;;;;;23.20;15.73;;;;;;;21.34;100.00;98548.78;5062613;28;20020;-69
2022/08/27 09:38:03;;;;;;;24.45;17.13;;;;;;;21.37;100.00;98546.28;5043811;28;20029;-69
2022/08/27 09:40:36;;;;;;;22.13;15.35;;;;;;;21.65;100.00;98550.34;5061197;28;20032;-69
2022/08/27 09:43:30;;;;;;;26.13;15.68;;;;;;;21.58;100.00;98552.56;5074642;28;20035;-69
2022/08/27 09:46:14;;;;;;;24.23;15.48;;;;;;;21.66;100.00;98540.97;5048881;28;20036;-69
2022/08/27 09:48:39;;;;;;;24.52;15.75;;;;;;;21.55;100.00;98544.88;5069275;28;20478;-72
2022/08/27 09:51:20;;;;;;;21.33;14.82;;;;;;;21.64;100.00;98545.94;5059480;28;20033;-71
2022/08/27 09:53:57;;;;;;;20.90;14.63;;;;;;;21.98;100.00;98542.47;5063910;28;20032;-71
2022/08/27 09:56:28;;;;;;;22.50;15.35;;;;;;;22.00;100.00;98523.72;5074578;28;20493;-71
2022/08/27 09:59:19;;;;;;;21.45;14.82;;;;;;;22.33;100.00;98537.06;5057885;28;20028;-71
2022/08/27 10:01:54;;;;;;;20.58;16.30;;;;;;;22.44;100.00;98533.09;5044162;28;20536;-72
2022/08/27 10:04:35;;;;;;;19.00;14.23;;;;;;;22.77;100.00;98528.69;5062835;28;20032;-72
2022/08/27 10:07:17;;;;;;;21.30;14.98;;;;;;;22.87;100.00;98536.03;5061529;28;20031;-72
2022/08/27 10:09:50;;;;;;;24.45;15.55;;;;;;;22.92;100.00;98517.50;5067067;28;20035;-72
2022/08/27 10:12:31;;;;;;;23.33;15.02;;;;;;;23.25;100.00;98519.66;5061299;28;20082;-72
2022/08/27 10:14:59;;;;;;;18.20;14.68;;;;;;;23.36;100.00;98515.66;5060701;28;20055;-75
2022/08/27 10:17:44;;;;;;;24.92;15.60;;;;;;;23.37;100.00;98520.91;5058802;28;20029;-72
2022/08/27 10:20:17;;;;;;;18.90;12.98;;;;;;;23.75;100.00;98518.25;5055068;28;20685;-72
2022/08/27 10:23:19;;;;;;;21.48;14.20;;;;;;;23.55;100.00;98524.00;5065920;28;20370;-72
2022/08/27 10:26:03;;;;;;;17.90;12.50;;;;;;;23.66;100.00;98524.69;5045241;28;20089;-72
2022/08/27 10:28:52;;;;;;;21.88;14.52;;;;;;;23.74;100.00;98526.84;5056221;28;20473;-74
2022/08/27 10:31:31;;;;;;;;;;;;;;;23.44;100.00;98528.81;5041297;28;20029;-72
2022/08/27 10:34:21;;;;;;;21.08;13.93;;;;;;;23.40;100.00;98533.31;5054936;28;19921;-72
2022/08/27 10:37:02;;;;;;;26.45;13.68;;;;;;;23.43;100.00;98540.16;5058186;28;20032;-72
2022/08/27 10:39:52;;;;;;;19.63;14.48;;;;;;;23.39;100.00;98537.16;5047862;28;20028;-72
2022/08/27 10:42:31;;;;;;;19.60;13.45;;;;;;;23.49;100.00;98542.56;5058894;28;20041;-72
2022/08/27 10:45:11;;;;;;;19.97;13.23;;;;;;;23.70;100.00;98550.59;5049320;28;20127;-72
2022/08/27 10:48:02;;;;;;;19.38;14.32;;;;;;;23.82;100.00;98535.28;5055987;28;20482;-73
2022/08/27 10:50:36;;;;;;;22.60;13.02;;;;;;;24.25;100.00;98542.69;5061915;28;20469;-72
2022/08/27 10:53:09;;;;;;;20.73;12.35;;;;;;;24.33;100.00;98530.13;5067424;28;20050;-72
2022/08/27 10:55:41;;;;;;;22.85;14.75;;;;;;;24.39;100.00;98537.22;5069302;28;20028;-72
2022/08/27 10:58:34;;;;;;;17.77;12.82;;;;;;;24.54;100.00;98533.41;5068322;28;20029;-72
2022/08/27 11:01:04;;;;;;;18.23;13.32;;;;;;;24.48;100.00;98540.97;5062745;28;20025;-72
2022/08/27 11:03:39;;;;;;;18.92;11.63;;;;;;;24.55;100.00;98546.09;5058325;28;20029;-72
2022/08/27 11:06:24;;;;;;;17.75;11.07;;;;;;;24.26;100.00;98527.72;5060479;28;20032;-72
2022/08/27 11:08:57;;;;;;;17.92;12.68;;;;;;;24.21;100.00;98553.53;5063961;28;20070;-72
2022/08/27 11:11:35;;;;;;;19.85;13.55;;;;;;;24.12;100.00;98551.72;5064681;28;20048;-72
2022/08/27 11:14:04;;;;;;;16.23;11.93;;;;;;;23.95;100.00;98539.25;5061311;28;20039;-72
2022/08/27 11:16:38;;;;;;;22.77;12.93;;;;;;;23.92;100.00;98547.28;5063162;28;20069;-72
2022/08/27 11:19:28;;;;;;;19.15;12.60;;;;;;;23.94;100.00;98542.28;5062529;28;20027;-72
2022/08/27 11:22:14;;;;;;;18.10;12.27;;;;;;;23.97;100.00;98548.06;5059995;28;20043;-72
2022/08/27 11:24:52;;;;;;;22.15;13.00;;;;;;;24.26;100.00;98547.91;5071417;28;20044;-72
2022/08/27 11:27:22;;;;;;;19.95;12.27;;;;;;;24.23;100.00;98544.91;5063063;28;20020;-72